Goodman, Mississippi
Current Conditions -  °F | °C
As of 6:53 PM on Monday 22 Dec 2014 (Local Time) from KGWO Reporting Station
Overcast Overcast  
Wind Chill: 61°   Ceiling: 6000
Heat Index: 61°   Visibility: 9mi
Dew Point: 58°   Wind: 9mph
Humidity: 90%   Direction: 170°S
Pressure: 29.66"   Gusts: NA
Location:  32.97°N, 89.91°W
Report Text: KGWO 230053Z AUTO 17008KT 9SM FEW009 SCT049 OVC060 16/14 A2966 RMK AO2 SLP042 T01610144
Loading
Personal Weather Stations






























Interactive Weather Map New forecast layout! Learn more

10-Day Weather Forecast

Advertisements
Track Severe Weather on mobile